Time;durP1;ratioP1;P1;durP2;ratioP2;P2;SDS_P1;SDS_P2;PMS_P1;PMS_P2;Temp;Humidity;BMP_temperature;BMP_pressure;BME280_temperature;BME280_humidity;BME280_pressure;Samples;Min_cycle;Max_cycle;Signal;HPM_P1;HPM_P2
2022/01/03 00:01:44;;;;;;;8.57;1.30;;;11.80;99.90;;;11.89;80.61;100756.09;5184966;28;20062;-78
2022/01/03 00:04:17;;;;;;;5.95;1.10;;;11.80;99.90;;;11.90;81.64;100753.53;5184978;28;20112;-78
2022/01/03 00:06:51;;;;;;;4.00;1.20;;;11.80;99.90;;;11.81;80.83;100753.28;5184698;28;20416;-78
2022/01/03 00:09:23;;;;;;;9.20;1.25;;;11.80;99.90;;;11.81;81.36;100749.78;5184823;28;20046;-78
2022/01/03 00:11:55;;;;;;;8.85;1.40;;;11.80;99.90;;;11.81;81.01;100762.84;5185489;28;20058;-79
2022/01/03 00:14:28;;;;;;;7.32;1.20;;;11.80;99.90;;;11.83;80.82;100766.38;5184325;28;20061;-79
2022/01/03 00:17:00;;;;;;;7.70;1.23;;;11.80;99.90;;;11.80;81.02;100766.22;5185609;28;20050;-79
2022/01/03 00:19:32;;;;;;;6.28;1.30;;;11.70;99.90;;;11.77;81.30;100776.59;5191496;28;20050;-79
2022/01/03 00:22:09;;;;;;;12.10;1.77;;;11.70;99.90;;;11.85;81.05;100765.56;5196445;28;20500;-79
2022/01/03 00:24:46;;;;;;;8.90;1.35;;;11.70;99.90;;;11.83;81.17;100771.59;5194167;28;20057;-79
2022/01/03 00:27:22;;;;;;;10.70;1.60;;;11.70;99.90;;;11.78;81.81;100773.13;5194325;28;20054;-80
2022/01/03 00:29:54;;;;;;;11.45;1.58;;;11.70;99.90;;;11.77;81.90;100771.38;5193041;28;20140;-79
2022/01/03 00:32:29;;;;;;;11.35;1.30;;;11.70;99.90;;;11.73;82.00;100778.22;5193015;28;20069;-79
2022/01/03 00:35:01;;;;;;;7.93;1.52;;;11.70;99.90;;;11.76;81.82;100780.94;5193762;28;20045;-79
2022/01/03 00:37:36;;;;;;;11.32;1.50;;;11.70;99.90;;;11.74;82.15;100786.97;5190574;28;20423;-79
2022/01/03 00:40:09;;;;;;;;;;;11.70;99.90;;;11.71;82.16;100787.75;5189141;28;20049;-79
2022/01/03 00:42:42;;;;;;;9.13;1.25;;;11.70;99.90;;;11.76;81.82;100786.16;5191818;28;19922;-79
2022/01/03 00:45:14;;;;;;;16.02;1.92;;;11.70;99.90;;;11.71;82.19;100781.63;5193491;28;20046;-79
2022/01/03 00:47:47;;;;;;;9.32;1.98;;;11.70;99.90;;;11.72;82.20;100786.00;5192639;28;20061;-78
2022/01/03 00:50:22;;;;;;;8.57;1.20;;;11.60;99.90;;;11.72;82.23;100783.41;5191946;28;20057;-80
2022/01/03 00:52:55;;;;;;;7.85;1.10;;;11.70;99.90;;;11.75;81.75;100779.16;5187895;28;20046;-79
2022/01/03 00:55:27;;;;;;;7.72;1.67;;;11.60;99.90;;;11.72;81.63;100789.50;5187946;28;20046;-78
2022/01/03 00:58:05;;;;;;;5.78;1.13;;;11.60;99.90;;;11.66;81.95;100790.19;5188266;28;20050;-78
2022/01/03 01:00:40;;;;;;;5.75;1.00;;;11.60;99.90;;;11.65;81.93;100791.03;5188522;28;20049;-78
2022/01/03 01:03:15;;;;;;;;;;;11.60;99.90;;;11.65;82.38;100778.00;5188120;28;20053;-78
2022/01/03 01:05:50;;;;;;;5.35;1.17;;;11.60;99.90;;;11.67;82.76;100789.38;5189872;28;19921;-79
2022/01/03 01:08:26;;;;;;;;;;;11.60;99.90;;;11.65;83.14;100793.66;5194618;28;20072;-78
2022/01/03 01:11:02;;;;;;;10.73;1.20;;;11.60;99.90;;;11.57;83.67;100795.16;5189725;28;20359;-78
2022/01/03 01:13:36;;;;;;;5.85;1.35;;;11.60;99.90;;;11.54;84.32;100810.75;5189125;28;20057;-78
2022/01/03 01:16:09;;;;;;;7.03;1.20;;;11.50;99.90;;;11.52;85.14;100809.78;5189153;28;20053;-76
2022/01/03 01:18:41;;;;;;;5.40;1.30;;;11.50;99.90;;;11.40;86.02;100812.88;5189799;28;20050;-79
2022/01/03 01:21:15;;;;;;;7.68;1.30;;;11.40;99.90;;;11.40;86.53;100812.00;5189334;28;20057;-79
2022/01/03 01:23:51;;;;;;;7.20;1.00;;;11.40;99.90;;;11.35;86.80;100808.38;5188570;28;20056;-79
2022/01/03 01:29:13;;;;;;;7.28;1.20;;;11.30;99.90;;;11.32;86.51;100823.94;5188410;28;20080;-79
2022/01/03 01:31:48;;;;;;;6.03;0.93;;;11.30;99.90;;;11.31;86.58;100811.72;5188196;28;20045;-78
2022/01/03 01:34:26;;;;;;;6.22;1.60;;;11.20;99.90;;;11.28;86.79;100816.81;5188307;28;20046;-78
2022/01/03 01:37:00;;;;;;;7.80;1.30;;;11.20;99.90;;;11.27;86.81;100825.50;5188551;28;20052;-78
2022/01/03 01:39:34;;;;;;;5.80;1.15;;;11.20;99.90;;;11.30;86.59;100820.41;5188784;28;20054;-78
2022/01/03 01:42:06;;;;;;;6.80;1.00;;;11.20;99.90;;;11.31;86.51;100817.81;5188523;28;20057;-79
2022/01/03 01:44:39;;;;;;;6.72;1.23;;;11.20;99.90;;;11.31;86.57;100820.44;5188009;28;20054;-79
2022/01/03 01:47:11;;;;;;;5.90;1.13;;;11.20;99.90;;;11.32;86.41;100826.53;5187667;28;20057;-79
2022/01/03 01:49:46;;;;;;;7.95;1.20;;;11.30;99.90;;;11.30;86.62;100816.06;5187353;28;20046;-78
2022/01/03 01:52:22;;;;;;;10.55;1.30;;;11.30;99.90;;;11.34;86.31;100820.53;5187305;28;20427;-78
2022/01/03 01:54:59;;;;;;;6.95;1.33;;;11.30;99.90;;;11.33;85.81;100821.38;5187296;28;20053;-78
2022/01/03 01:57:49;;;;;;;8.77;1.20;;;11.20;99.90;;;11.35;85.66;100822.31;5187771;28;20057;-79
2022/01/03 02:00:22;;;;;;;7.35;1.50;;;11.30;99.90;;;11.33;85.85;100826.59;5188016;28;20049;-79
2022/01/03 02:03:16;;;;;;;5.50;1.02;;;11.30;99.90;;;11.34;85.72;100830.06;5187759;28;20518;-79
2022/01/03 02:06:03;;;;;;;5.15;1.13;;;11.30;99.90;;;11.34;85.85;100824.84;5187308;28;20058;-79
2022/01/03 02:08:45;;;;;;;5.38;1.25;;;11.30;99.90;;;11.35;85.88;100837.97;5188226;28;20046;-78
2022/01/03 02:11:28;;;;;;;2.67;0.93;;;11.30;99.90;;;11.37;85.46;100833.69;5187967;28;20119;-79
2022/01/03 02:14:00;;;;;;;4.30;0.98;;;11.30;99.90;;;11.36;85.64;100841.47;5187294;28;20423;-79
2022/01/03 02:16:34;;;;;;;6.18;1.38;;;11.30;99.90;;;11.39;85.57;100838.94;5188476;28;20413;-78
2022/01/03 02:19:06;;;;;;;8.10;1.58;;;11.30;99.90;;;11.40;85.27;100835.50;5188546;28;20460;-79
2022/01/03 02:21:39;;;;;;;7.03;1.40;;;11.30;99.90;;;11.40;84.90;100835.50;5188264;28;20674;-79
2022/01/03 02:24:11;;;;;;;6.57;1.40;;;11.30;99.90;;;11.44;84.68;100833.88;5188076;28;20045;-78
2022/01/03 02:26:43;;;;;;;8.32;1.42;;;11.30;99.90;;;11.41;84.24;100832.06;5188185;28;20054;-79
2022/01/03 02:29:15;;;;;;;9.52;1.58;;;11.30;99.90;;;11.37;84.62;100832.81;5188836;28;20420;-79
2022/01/03 02:31:47;;;;;;;6.63;1.20;;;11.30;99.90;;;11.36;84.64;100826.69;5189448;28;20045;-79
2022/01/03 02:34:19;;;;;;;6.32;1.00;;;11.30;99.90;;;11.40;84.55;100825.06;5194078;28;20567;-79
2022/01/03 02:36:53;;;;;;;7.05;1.50;;;11.30;99.90;;;11.33;84.19;100815.25;5198135;28;20423;-79
2022/01/03 02:39:26;;;;;;;5.00;1.30;;;11.30;99.90;;;11.31;83.90;100824.78;5198516;28;20114;-79
2022/01/03 02:41:57;;;;;;;5.40;1.02;;;11.20;99.90;;;11.29;84.15;100823.84;5198118;28;20444;-79
2022/01/03 02:44:29;;;;;;;7.78;1.50;;;11.20;99.90;;;11.26;84.29;100821.13;5197472;28;20049;-79
2022/01/03 02:47:01;;;;;;;5.78;1.30;;;11.20;99.90;;;11.22;84.15;100816.66;5198376;28;20053;-80
2022/01/03 02:49:33;;;;;;;6.22;1.10;;;11.20;99.90;;;11.23;83.84;100834.97;5197766;28;20056;-79
2022/01/03 02:52:07;;;;;;;4.40;1.08;;;11.20;99.90;;;11.24;83.78;100835.84;5195895;28;20054;-81
2022/01/03 02:54:38;;;;;;;7.43;1.20;;;11.20;99.90;;;11.25;83.76;100827.19;5195109;28;20046;-79
2022/01/03 02:57:11;;;;;;;2.97;0.90;;;11.20;99.90;;;11.26;83.13;100828.94;5194802;28;20057;-79
2022/01/03 02:59:43;;;;;;;6.70;1.35;;;11.20;99.90;;;11.23;82.80;100827.13;5194891;28;20053;-79
2022/01/03 03:02:19;;;;;;;4.50;1.25;;;11.20;99.90;;;11.20;82.41;100819.19;5193143;28;20054;-79
2022/01/03 03:04:57;;;;;;;5.13;1.17;;;11.20;99.90;;;11.17;82.67;100819.13;5185206;28;20408;-78
2022/01/03 03:07:31;;;;;;;10.32;1.50;;;11.10;99.90;;;11.12;82.35;100821.56;5186213;28;20054;-79
2022/01/03 03:10:07;;;;;;;8.98;1.17;;;11.10;99.90;;;11.13;82.48;100825.94;5186401;28;20057;-78
2022/01/03 03:12:40;;;;;;;6.05;1.23;;;11.10;99.90;;;11.13;82.66;100825.94;5186160;28;20056;-79
2022/01/03 03:15:14;;;;;;;9.75;1.30;;;11.10;99.90;;;11.13;82.73;100833.75;5185870;28;20046;-77
2022/01/03 03:17:47;;;;;;;5.18;0.93;;;11.10;99.90;;;11.18;82.60;100835.66;5186704;28;20053;-78
2022/01/03 03:20:23;;;;;;;4.30;1.27;;;11.10;99.90;;;11.19;82.56;100833.09;5186443;28;20117;-78
2022/01/03 03:22:58;;;;;;;6.88;1.00;;;11.10;99.90;;;11.21;82.50;100838.34;5185841;28;20054;-78
2022/01/03 03:25:33;;;;;;;9.82;1.42;;;11.10;99.90;;;11.20;82.81;100833.97;5186057;28;20056;-79
2022/01/03 03:28:09;;;;;;;3.38;0.95;;;11.10;99.90;;;11.21;82.82;100838.34;5192307;28;20046;-79
2022/01/03 03:30:44;;;;;;;9.30;1.15;;;11.10;99.90;;;11.23;82.82;100844.53;5191655;28;20053;-78
2022/01/03 03:33:18;;;;;;;5.90;1.27;;;11.10;99.90;;;11.23;82.93;100841.91;5185038;28;20528;-78
2022/01/03 03:35:52;;;;;;;7.35;1.80;;;11.10;99.90;;;11.23;82.72;100834.97;5184964;28;20050;-78
2022/01/03 03:38:27;;;;;;;5.22;1.33;;;11.20;99.90;;;11.22;83.03;100843.63;5190396;28;20048;-80
2022/01/03 03:41:01;;;;;;;9.10;1.20;;;11.10;99.90;;;11.24;82.97;100844.56;5194569;28;20050;-80
2022/01/03 03:43:33;;;;;;;6.95;1.30;;;11.10;99.90;;;11.25;82.61;100845.44;5187362;28;20060;-78
2022/01/03 03:46:07;;;;;;;6.07;1.30;;;11.10;99.90;;;11.21;83.02;100840.97;5184517;28;20057;-79
2022/01/03 03:48:39;;;;;;;7.50;1.38;;;11.10;99.90;;;11.21;82.99;100841.84;5186472;28;20496;-79
2022/01/03 03:51:11;;;;;;;6.53;1.27;;;11.10;99.90;;;11.25;83.08;100842.84;5194334;28;20057;-78
2022/01/03 03:53:44;;;;;;;6.47;1.02;;;11.10;99.90;;;11.23;82.90;100847.13;5194346;28;20492;-78
2022/01/03 03:56:16;;;;;;;5.55;1.60;;;11.10;99.90;;;11.22;83.21;100845.38;5192714;28;20394;-79
2022/01/03 03:58:48;;;;;;;4.13;0.90;;;11.10;99.90;;;11.26;82.55;100852.44;5192523;28;20050;-79
2022/01/03 04:01:20;;;;;;;4.40;0.90;;;11.10;99.90;;;11.22;82.58;100854.06;5192236;28;20053;-80
2022/01/03 04:03:53;;;;;;;4.22;1.05;;;11.10;99.90;;;11.22;82.91;100854.06;5291430;23;20405;-75
2022/01/03 04:06:25;;;;;;;4.55;1.05;;;11.10;99.90;;;11.23;82.77;100841.91;5182194;28;20042;-75
2022/01/03 04:08:58;;;;;;;9.93;1.30;;;11.10;99.90;;;11.22;82.61;100842.75;5184247;28;20058;-75
2022/01/03 04:11:31;;;;;;;7.70;1.40;;;11.10;99.90;;;11.20;82.46;100840.06;5187939;28;20045;-75
2022/01/03 04:14:03;;;;;;;5.53;1.05;;;11.10;99.90;;;11.15;82.35;100844.28;5183959;28;20049;-75
2022/01/03 04:16:36;;;;;;;3.13;1.20;;;11.10;99.90;;;11.12;82.18;100837.22;5188062;28;20129;-75
2022/01/03 04:19:08;;;;;;;10.57;1.05;;;11.10;99.90;;;11.08;82.22;100834.44;5188285;28;20155;-76
2022/01/03 04:21:40;;;;;;;8.10;1.20;;;11.00;99.90;;;11.01;82.21;100838.56;5187904;28;20058;-75
2022/01/03 04:24:13;;;;;;;5.40;1.10;;;11.00;99.90;;;10.95;82.29;100840.97;5188212;28;20413;-75
2022/01/03 04:26:49;;;;;;;3.95;1.05;;;10.90;99.90;;;10.93;82.76;100840.03;5188131;28;20134;-75
2022/01/03 04:29:21;;;;;;;6.13;1.10;;;10.90;99.90;;;10.94;82.80;100840.91;5191959;28;20053;-75
2022/01/03 04:31:53;;;;;;;8.35;1.45;;;10.90;99.90;;;10.92;82.75;100842.59;5187876;28;20042;-75
2022/01/03 04:34:25;;;;;;;4.28;0.82;;;10.90;99.90;;;10.89;83.00;100832.97;5187239;28;20512;-74
2022/01/03 04:36:57;;;;;;;7.25;1.35;;;10.90;99.90;;;10.87;83.17;100839.81;5187779;28;20405;-74
2022/01/03 04:39:30;;;;;;;6.15;1.50;;;10.80;99.90;;;10.90;83.64;100837.34;5187657;28;20052;-74
2022/01/03 04:42:03;;;;;;;3.45;1.08;;;10.80;99.90;;;10.89;83.46;100832.97;5187563;28;20054;-75
2022/01/03 04:44:35;;;;;;;3.75;1.23;;;10.80;99.90;;;10.87;83.28;100837.22;5187071;28;20064;-75
2022/01/03 04:47:07;;;;;;;9.27;1.33;;;10.80;99.90;;;10.86;82.65;100830.22;5187604;28;20056;-75
2022/01/03 04:49:39;;;;;;;9.35;1.30;;;10.80;99.90;;;10.78;82.76;100835.19;5191538;28;20046;-75
2022/01/03 04:52:11;;;;;;;5.10;1.13;;;10.70;99.90;;;10.75;82.81;100828.97;5187740;28;20050;-75
2022/01/03 04:54:44;;;;;;;5.07;1.55;;;10.70;99.90;;;10.71;82.86;100837.53;5186928;28;20053;-75
2022/01/03 04:57:16;;;;;;;2.65;0.93;;;10.70;99.90;;;10.67;83.10;100833.03;5187473;28;20046;-74
2022/01/03 04:59:48;;;;;;;9.32;1.35;;;10.70;99.90;;;10.67;82.77;100831.31;5187287;28;20054;-74
2022/01/03 05:02:21;;;;;;;8.18;1.33;;;10.60;99.90;;;10.68;82.64;100834.81;5187135;28;20052;-74
2022/01/03 05:04:53;;;;;;;5.53;1.00;;;10.60;99.90;;;10.64;83.13;100835.56;5186670;28;20056;-74
2022/01/03 05:07:25;;;;;;;3.17;1.23;;;10.60;99.90;;;10.66;83.37;100833.88;5191318;28;20041;-75
2022/01/03 05:09:58;;;;;;;6.55;1.17;;;10.60;99.90;;;10.64;83.31;100818.19;5187429;28;20050;-75
2022/01/03 05:12:30;;;;;;;7.07;1.10;;;10.60;99.90;;;10.67;83.57;100825.22;5186863;28;20056;-75
2022/01/03 05:15:02;;;;;;;6.90;1.02;;;10.60;99.90;;;10.69;83.51;100823.53;5186693;28;20403;-75
2022/01/03 05:17:34;;;;;;;4.35;1.17;;;10.60;99.90;;;10.71;83.53;100822.78;5187303;28;20057;-75
2022/01/03 05:20:07;;;;;;;4.57;1.05;;;10.70;99.90;;;10.71;83.54;100828.00;5187553;28;20056;-75
2022/01/03 05:22:39;;;;;;;3.88;1.00;;;10.70;99.90;;;10.72;83.50;100821.06;5187093;28;20045;-75
2022/01/03 05:25:13;;;;;;;5.85;1.05;;;10.60;99.90;;;10.73;83.15;100821.09;5186520;28;20046;-75
2022/01/03 05:27:45;;;;;;;4.75;0.82;;;10.60;99.90;;;10.73;83.14;100817.63;5187158;28;20056;-74
2022/01/03 05:30:17;;;;;;;6.70;1.48;;;10.70;99.90;;;10.74;82.90;100812.44;5186551;28;20046;-74
2022/01/03 05:32:49;;;;;;;10.70;1.23;;;10.70;99.90;;;10.71;82.73;100816.69;5186802;28;20056;-75
2022/01/03 05:35:22;;;;;;;4.15;1.05;;;10.70;99.90;;;10.71;82.55;100819.28;5186054;28;20050;-75
2022/01/03 05:37:54;;;;;;;7.18;1.10;;;10.60;99.90;;;10.71;82.71;100817.56;5186453;28;20071;-75
2022/01/03 05:40:28;;;;;;;7.55;1.00;;;10.60;99.90;;;10.77;82.25;100820.38;5186308;28;20052;-74
2022/01/03 05:43:00;;;;;;;7.43;1.00;;;10.70;99.90;;;10.76;82.10;100820.34;5186864;28;20054;-74
2022/01/03 05:45:32;;;;;;;9.60;1.35;;;10.70;99.90;;;10.77;82.32;100811.69;5189538;28;20050;-74
2022/01/03 05:48:05;;;;;;;8.27;1.70;;;10.70;99.90;;;10.78;82.09;100819.53;5186413;28;20387;-75
2022/01/03 05:50:37;;;;;;;5.78;1.45;;;10.70;99.90;;;10.77;82.17;100812.56;5186211;28;20050;-74
2022/01/03 05:53:09;;;;;;;7.55;1.42;;;10.70;99.90;;;10.76;81.84;100818.63;5186815;28;20046;-75
2022/01/03 05:55:42;;;;;;;12.30;1.73;;;10.70;99.90;;;10.77;82.11;100816.91;5186135;28;20272;-75
2022/01/03 05:58:15;;;;;;;6.03;0.95;;;10.70;99.90;;;10.78;81.93;100816.06;5186407;28;20045;-75
2022/01/03 06:00:47;;;;;;;5.75;0.98;;;10.70;99.90;;;10.78;82.06;100803.91;5186248;28;20050;-75
2022/01/03 06:03:22;;;;;;;7.70;1.30;;;10.70;99.90;;;10.80;81.91;100807.44;5186388;28;20065;-75
2022/01/03 06:06:17;;;;;;;7.35;1.20;;;10.70;99.90;;;10.80;81.70;100793.53;5189700;28;20041;-75
2022/01/03 06:08:49;;;;;;;6.80;1.60;;;10.70;99.90;;;10.82;81.79;100791.84;5186133;28;20058;-75
2022/01/03 06:11:23;;;;;;;5.65;1.20;;;10.70;99.90;;;10.84;81.21;100787.59;5186108;28;20046;-74
2022/01/03 06:13:55;;;;;;;3.45;1.17;;;10.80;99.90;;;10.86;80.70;100783.28;5185795;28;20487;-74
2022/01/03 06:16:27;;;;;;;4.93;1.13;;;10.80;99.90;;;10.88;80.01;100784.22;5186101;28;20049;-74
2022/01/03 06:18:59;;;;;;;5.95;1.83;;;10.80;99.90;;;10.85;80.19;100779.81;5185895;28;20414;-74
2022/01/03 06:21:31;;;;;;;8.35;1.50;;;10.80;99.90;;;10.86;80.44;100778.97;5185938;28;20046;-75
2022/01/03 06:24:04;;;;;;;6.45;1.10;;;10.80;99.90;;;10.93;79.13;100779.16;5188736;28;20071;-74
2022/01/03 06:26:41;;;;;;;7.07;1.50;;;10.80;99.90;;;10.94;79.37;100778.31;5185835;28;20056;-75
2022/01/03 06:29:15;;;;;;;4.47;1.10;;;10.80;99.90;;;10.95;79.41;100773.16;5186001;28;20054;-75
2022/01/03 06:31:48;;;;;;;5.10;1.10;;;10.80;99.90;;;10.95;79.34;100773.16;5185472;28;20052;-75
2022/01/03 06:34:21;;;;;;;4.30;1.15;;;10.80;99.90;;;10.98;78.68;100769.78;5184885;28;20056;-75
2022/01/03 06:36:53;;;;;;;4.97;1.08;;;10.80;99.90;;;11.02;78.77;100772.56;5185350;28;20042;-74
2022/01/03 06:39:25;;;;;;;5.70;1.02;;;10.90;99.90;;;10.99;78.40;100772.44;5184042;28;20104;-75
2022/01/03 06:41:59;;;;;;;7.28;1.20;;;10.90;99.90;;;10.97;78.55;100763.69;5185138;28;20374;-75
2022/01/03 06:44:31;;;;;;;5.45;1.20;;;10.80;99.90;;;10.95;78.75;100769.66;5185034;28;20057;-74
2022/01/03 06:47:03;;;;;;;7.47;1.08;;;10.90;99.90;;;10.96;79.05;100769.75;5184807;28;20041;-75
2022/01/03 06:49:35;;;;;;;4.70;1.20;;;10.90;99.90;;;10.93;79.38;100764.41;5185310;28;20332;-75
2022/01/03 06:52:08;;;;;;;5.00;1.42;;;10.80;99.90;;;10.96;79.40;100769.75;5185115;28;20046;-75
2022/01/03 06:54:40;;;;;;;6.80;0.98;;;10.90;99.90;;;11.11;77.92;100778.06;5184540;28;20058;-75
2022/01/03 06:57:13;;;;;;;5.90;1.63;;;10.90;99.90;;;11.06;77.41;100779.63;5185334;28;20060;-74
2022/01/03 06:59:45;;;;;;;7.25;1.17;;;10.90;99.90;;;11.03;77.81;100783.88;5184910;28;20402;-73
2022/01/03 07:02:17;;;;;;;6.50;1.17;;;10.90;99.90;;;11.06;77.77;100779.63;5184920;28;20049;-73
2022/01/03 07:04:49;;;;;;;6.18;1.15;;;10.90;99.90;;;11.09;77.65;100778.84;5184207;28;20053;-74
2022/01/03 07:07:21;;;;;;;7.20;0.93;;;10.90;99.90;;;11.11;77.43;100779.78;5184625;28;20133;-74
2022/01/03 07:09:53;;;;;;;5.30;1.20;;;10.90;99.90;;;11.05;78.07;100787.41;5184386;28;20053;-73
2022/01/03 07:12:26;;;;;;;7.40;1.00;;;10.90;99.90;;;11.05;78.20;100776.97;5184570;28;20046;-74
2022/01/03 07:20:38;;;;;;;7.07;1.15;;;10.90;99.90;;;10.99;78.59;100776.75;5184507;28;20107;-74
2022/01/03 07:23:10;;;;;;;5.53;1.27;;;10.90;99.90;;;10.97;79.01;100779.34;5184303;28;20060;-74
2022/01/03 07:25:42;;;;;;;2.70;1.08;;;10.90;99.90;;;10.99;78.90;100779.38;5183763;28;20042;-74
2022/01/03 07:28:16;;;;;;;3.85;0.88;;;10.90;99.90;;;10.98;78.99;100775.00;5184159;28;20491;-74
2022/01/03 07:30:48;;;;;;;6.35;1.23;;;10.90;99.90;;;10.95;79.18;100780.97;5184287;28;20406;-74
2022/01/03 07:33:20;;;;;;;7.85;1.20;;;10.90;99.90;;;10.95;79.28;100765.31;5184408;28;20054;-74
2022/01/03 07:35:52;;;;;;;5.25;1.17;;;10.90;99.90;;;10.90;79.25;100766.94;5184041;28;20049;-74
2022/01/03 07:38:24;;;;;;;4.15;1.00;;;10.80;99.90;;;10.86;79.70;100775.47;5184086;28;20046;-73
2022/01/03 07:40:57;;;;;;;12.10;1.50;;;10.80;99.90;;;10.80;80.26;100772.66;5184052;28;20133;-74
2022/01/03 07:43:30;;;;;;;2.92;0.93;;;10.80;99.90;;;10.78;80.69;100782.16;5183880;28;20458;-73
2022/01/03 07:46:02;;;;;;;2.80;1.00;;;10.70;99.90;;;10.76;81.42;100778.63;5183860;28;20116;-74
2022/01/03 07:48:34;;;;;;;4.63;1.35;;;10.70;99.90;;;10.78;81.65;100779.56;5184218;28;20049;-74
2022/01/03 07:51:06;;;;;;;4.50;1.00;;;10.70;99.90;;;10.82;81.95;100776.19;5187164;28;20060;-74
2022/01/03 07:53:38;;;;;;;5.75;1.65;;;10.70;99.90;;;10.77;82.05;100772.56;5187962;28;20054;-74
2022/01/03 07:56:11;;;;;;;7.30;1.48;;;10.70;99.90;;;10.81;82.54;100764.00;5187839;28;20079;-73
2022/01/03 07:58:45;;;;;;;7.60;1.10;;;10.70;99.90;;;10.86;82.39;100770.25;5188134;28;20053;-73
2022/01/03 08:01:17;;;;;;;7.72;1.52;;;10.70;99.90;;;10.83;83.03;100772.78;5188090;28;20046;-68
2022/01/03 08:03:49;;;;;;;3.83;0.75;;;10.70;99.90;;;10.84;83.64;100767.59;5187520;28;20491;-67
2022/01/03 08:06:21;;;;;;;8.48;1.70;;;10.70;99.90;;;10.91;84.54;100768.69;5188259;28;20112;-67
2022/01/03 08:08:52;;;;;;;7.53;1.42;;;10.80;99.90;;;10.84;85.27;100771.94;5187999;28;20046;-67
2022/01/03 08:11:26;;;;;;;7.68;1.40;;;10.80;99.90;;;10.85;85.92;100758.06;5187837;28;20061;-67
2022/01/03 08:14:00;;;;;;;7.72;1.38;;;10.70;99.90;;;10.76;86.54;100757.75;5187106;28;20050;-67
2022/01/03 08:16:32;;;;;;;5.20;1.05;;;10.70;99.90;;;10.77;87.19;100764.75;5187250;28;20052;-68
2022/01/03 08:19:04;;;;;;;5.15;1.20;;;10.70;99.90;;;10.83;87.28;100764.94;5187922;28;20053;-67
2022/01/03 08:21:36;;;;;;;5.18;0.93;;;10.70;99.90;;;10.84;87.46;100762.38;5187820;28;20167;-67
2022/01/03 08:24:08;;;;;;;6.97;1.42;;;10.70;99.90;;;10.89;87.33;100759.94;5187224;28;20049;-67
2022/01/03 08:26:40;;;;;;;7.78;1.20;;;10.80;99.90;;;11.00;86.76;100768.09;5187903;28;20050;-67
2022/01/03 08:29:13;;;;;;;3.15;1.00;;;10.80;99.90;;;10.99;86.05;100762.00;5187452;28;20108;-67
2022/01/03 08:31:45;;;;;;;4.20;0.98;;;10.70;99.90;;;10.89;86.85;100759.94;5187717;28;20499;-67
2022/01/03 08:34:17;;;;;;;4.20;1.10;;;10.70;99.90;;;10.83;87.40;100759.75;5187061;28;20046;-68
2022/01/03 08:36:49;;;;;;;4.63;1.17;;;10.70;99.90;;;10.80;88.18;100763.13;5187191;28;20050;-68
2022/01/03 08:39:21;;;;;;;8.13;1.25;;;10.70;99.90;;;10.78;88.26;100767.41;5187236;28;20498;-68
2022/01/03 08:41:54;;;;;;;5.32;1.15;;;10.70;99.90;;;10.78;88.81;100766.50;5187800;28;20406;-68
2022/01/03 08:44:27;;;;;;;7.43;1.73;;;10.70;99.90;;;10.82;89.13;100763.16;5187341;28;20049;-68
2022/01/03 08:46:59;;;;;;;4.30;1.40;;;10.70;99.90;;;10.85;89.11;100773.72;5187433;28;20052;-67
2022/01/03 08:49:32;;;;;;;8.65;1.60;;;10.80;99.90;;;10.93;89.19;100772.22;5187455;28;20495;-68
2022/01/03 08:52:05;;;;;;;5.68;1.42;;;10.80;99.90;;;10.98;88.96;100772.38;5187263;28;20057;-69
2022/01/03 08:54:37;;;;;;;6.35;1.15;;;10.80;99.90;;;11.01;88.84;100773.34;5187082;28;20052;-69
2022/01/03 08:57:09;;;;;;;7.28;1.25;;;10.90;99.90;;;11.06;88.86;100777.00;5187335;28;20068;-71
2022/01/03 08:59:42;;;;;;;6.25;1.20;;;10.90;99.90;;;11.14;88.84;100764.22;5187160;28;20075;-69
2022/01/03 09:02:15;;;;;;;7.53;1.30;;;11.00;99.90;;;11.16;87.89;100767.78;5185717;28;20045;-69
2022/01/03 09:04:48;;;;;;;8.77;1.70;;;11.10;99.90;;;11.16;87.63;100762.56;5171319;28;20050;-71
2022/01/03 09:07:20;;;;;;;6.00;1.33;;;11.10;99.90;;;11.15;87.46;100758.19;5182582;28;20042;-70
2022/01/03 09:09:52;;;;;;;7.10;1.35;;;11.10;99.90;;;11.14;86.72;100759.88;5187031;28;20050;-69
2022/01/03 09:12:24;;;;;;;7.60;1.40;;;11.10;99.90;;;11.23;85.54;100758.41;5186711;28;20042;-70
2022/01/03 09:14:58;;;;;;;5.25;1.35;;;11.10;99.90;;;11.21;85.88;100754.84;5186488;28;20050;-70
2022/01/03 09:17:30;;;;;;;11.02;1.95;;;11.10;99.90;;;11.23;86.00;100751.47;5186873;28;20046;-70
2022/01/03 09:20:02;;;;;;;8.90;1.42;;;11.10;99.90;;;11.23;86.29;100748.88;5187385;28;20052;-70
2022/01/03 09:22:40;;;;;;;8.88;1.30;;;11.10;99.90;;;11.26;86.33;100756.78;5187049;28;20057;-71
2022/01/03 09:30:56;;;;;;;8.05;1.65;;;11.20;99.90;;;11.49;83.96;100741.84;5187143;28;20100;-70
2022/01/03 09:33:28;;;;;;;5.40;1.40;;;11.30;99.90;;;11.54;83.57;100748.09;5186740;28;20050;-70
2022/01/03 09:36:00;;;;;;;4.18;1.30;;;11.30;99.90;;;11.59;83.20;100738.63;5186390;28;20046;-70
2022/01/03 09:38:33;;;;;;;6.78;1.20;;;11.40;99.90;;;11.61;83.39;100744.81;5186661;28;20056;-70
2022/01/03 09:41:08;;;;;;;9.93;1.65;;;11.40;99.90;;;11.66;83.49;100743.19;5186870;28;20050;-70
2022/01/03 09:43:48;;;;;;;6.63;1.15;;;11.50;99.90;;;11.76;83.58;100730.44;5186470;28;20057;-70
2022/01/03 09:46:25;;;;;;;7.82;1.48;;;11.50;99.90;;;11.79;82.95;100741.84;5186487;28;20054;-70
2022/01/03 09:48:57;;;;;;;12.30;1.85;;;11.60;99.90;;;11.81;82.73;100736.72;5186769;28;20050;-70
2022/01/03 09:51:32;;;;;;;8.70;1.70;;;11.60;99.90;;;11.82;82.40;100739.38;5186463;28;20050;-70
2022/01/03 09:54:07;;;;;;;;;;;11.60;99.90;;;11.87;81.94;100742.13;5186604;28;20050;-70
2022/01/03 09:56:42;;;;;;;10.38;1.35;;;11.70;99.90;;;11.85;81.27;100749.00;5186313;28;20011;-70
2022/01/03 09:59:15;;;;;;;5.90;1.02;;;11.60;99.90;;;11.84;81.41;100736.78;5186565;28;20100;-70
2022/01/03 10:01:49;;;;;;;7.30;1.35;;;11.70;99.90;;;11.81;81.46;100739.31;5186463;28;20419;-70
2022/01/03 10:04:21;;;;;;;6.18;1.38;;;11.60;99.90;;;11.82;81.61;100743.69;5198442;22;20050;-70
2022/01/03 10:06:53;;;;;;;8.52;1.55;;;11.60;99.90;;;11.83;80.93;100727.19;5166070;28;20413;-70
2022/01/03 10:09:26;;;;;;;8.73;1.50;;;11.70;99.90;;;11.85;80.69;100738.56;5165599;28;20050;-70
2022/01/03 10:11:58;;;;;;;6.95;1.40;;;11.70;99.90;;;11.85;80.43;100754.22;5165971;28;20117;-70
2022/01/03 10:14:30;;;;;;;7.80;1.40;;;11.60;99.90;;;11.83;81.16;100758.53;5164967;28;20050;-71
2022/01/03 10:17:04;;;;;;;9.95;1.10;;;11.70;99.90;;;11.83;81.00;100745.47;5165202;28;20052;-70
2022/01/03 10:19:52;;;;;;;9.70;1.65;;;11.70;99.90;;;11.85;81.08;100754.22;5165061;28;20510;-70
2022/01/03 10:22:26;;;;;;;6.25;1.17;;;11.70;99.90;;;11.94;80.48;100750.16;5165041;28;20050;-70
2022/01/03 10:25:11;;;;;;;6.25;1.35;;;11.70;99.90;;;11.92;79.69;100741.38;5164518;28;20319;-70
2022/01/03 10:27:53;;;;;;;4.68;1.40;;;11.70;99.90;;;11.92;79.61;100733.53;5165593;28;20057;-71
2022/01/03 10:30:38;;;;;;;6.03;1.02;;;11.70;99.90;;;11.88;80.30;100729.09;5164770;28;20061;-71
2022/01/03 10:33:17;;;;;;;3.33;1.08;;;11.70;99.90;;;11.98;78.80;100717.16;5165142;28;20050;-71
2022/01/03 10:35:51;;;;;;;5.97;1.10;;;11.80;99.90;;;12.02;79.36;100718.13;5164550;28;20046;-71
2022/01/03 10:38:35;;;;;;;5.63;1.10;;;11.80;99.90;;;12.08;77.72;100713.97;5164767;28;20665;-72
2022/01/03 10:41:14;;;;;;;8.27;1.40;;;11.80;99.90;;;12.08;78.54;100710.47;5164925;28;20660;-70
2022/01/03 10:43:50;;;;;;;5.88;1.25;;;11.80;99.90;;;12.05;78.77;100700.81;5164268;28;20050;-70
2022/01/03 10:46:25;;;;;;;10.23;1.30;;;11.90;99.90;;;12.08;78.78;100698.28;5164402;28;20499;-69
2022/01/03 10:49:12;;;;;;;3.90;1.00;;;11.90;99.90;;;12.07;78.96;100699.13;5164547;28;20057;-69
2022/01/03 10:51:45;;;;;;;6.28;1.30;;;11.90;99.90;;;12.09;78.50;100692.22;5164971;28;20047;-70
2022/01/03 10:54:19;;;;;;;7.50;1.42;;;11.90;99.90;;;12.16;78.22;100698.50;5164247;28;20050;-70